createdAt,value
2023-06-01T00:00:39.406Z,56.25
2023-06-01T00:06:02.050Z,55.79
2023-06-01T00:11:04.757Z,56.36
2023-06-01T00:16:07.567Z,56.70
2023-06-01T00:21:10.538Z,57.33
2023-06-01T00:26:13.194Z,57.73
2023-06-01T00:31:15.884Z,58.41
2023-06-01T00:36:18.549Z,58.21
2023-06-01T00:41:21.829Z,58.54
2023-06-01T00:46:24.857Z,58.63
2023-06-01T00:51:27.646Z,59.54
2023-06-01T00:56:32.502Z,60.69
2023-06-01T01:01:37.500Z,61.41
2023-06-01T01:07:09.160Z,60.41
2023-06-01T01:12:27.712Z,60.54
2023-06-01T01:17:34.099Z,70.75
2023-06-01T01:22:39.498Z,64.08
2023-06-01T01:28:03.751Z,55.23
2023-06-01T01:33:07.876Z,55.76
2023-06-01T01:38:10.499Z,57.70
2023-06-01T01:43:13.311Z,58.15
2023-06-01T01:48:28.391Z,56.63
2023-06-01T01:53:31.519Z,57.00
2023-06-01T01:58:34.903Z,56.41
2023-06-01T02:03:37.605Z,57.76
2023-06-01T02:08:40.471Z,61.19
2023-06-01T02:13:43.018Z,57.12
2023-06-01T02:18:46.798Z,56.25
2023-06-01T02:23:49.367Z,59.40
2023-06-01T02:28:51.920Z,59.86
2023-06-01T02:33:54.624Z,59.64
2023-06-01T02:38:57.450Z,67.51
2023-06-01T02:44:00.275Z,63.18
2023-06-01T02:49:02.922Z,55.61
2023-06-01T02:54:05.494Z,57.38
2023-06-01T02:59:08.033Z,57.71
2023-06-01T03:04:13.299Z,60.41
2023-06-01T03:09:16.664Z,60.23
2023-06-01T03:14:19.455Z,61.19
2023-06-01T03:19:22.037Z,67.69
2023-06-01T03:24:28.610Z,60.45
2023-06-01T03:29:31.306Z,54.27
2023-06-01T03:34:34.395Z,56.73
2023-06-01T03:39:37.395Z,58.83
2023-06-01T03:44:42.839Z,60.37
2023-06-01T03:49:45.390Z,61.51
2023-06-01T03:54:47.948Z,66.51
2023-06-01T03:59:51.765Z,59.92
2023-06-01T04:04:54.366Z,53.62
2023-06-01T04:09:57.030Z,56.78
2023-06-01T04:14:59.646Z,59.42
2023-06-01T04:20:02.166Z,59.29
2023-06-01T04:25:12.630Z,61.12
2023-06-01T04:30:16.943Z,65.08
2023-06-01T04:35:19.602Z,58.22
2023-06-01T04:40:22.222Z,54.65
2023-06-01T04:45:26.726Z,56.47
2023-06-01T04:50:30.088Z,58.08
2023-06-01T04:55:32.969Z,58.99
2023-06-01T05:00:36.034Z,60.20
2023-06-01T05:05:41.242Z,60.98
2023-06-01T05:10:44.141Z,61.09
2023-06-01T05:15:46.762Z,62.79
2023-06-01T05:20:49.359Z,62.65
2023-06-01T05:25:52.115Z,53.86
2023-06-01T05:30:55.421Z,55.35
2023-06-01T05:35:58.183Z,57.78
2023-06-01T05:41:00.945Z,58.64
2023-06-01T05:46:04.364Z,59.62
2023-06-01T05:51:06.994Z,60.31
2023-06-01T05:56:09.726Z,59.90
2023-06-01T06:01:12.408Z,59.81
2023-06-01T06:06:15.058Z,59.81
2023-06-01T06:11:17.812Z,59.75
2023-06-01T06:16:20.710Z,59.15
2023-06-01T06:21:23.522Z,58.07
2023-06-01T06:26:29.884Z,56.92
2023-06-01T06:31:32.508Z,55.82
2023-06-01T06:36:35.101Z,54.31
2023-06-01T06:41:37.685Z,53.47
2023-06-01T06:46:40.525Z,52.50
2023-06-01T06:51:43.139Z,52.89
2023-06-01T06:56:45.833Z,52.84
2023-06-01T07:01:48.960Z,52.90
2023-06-01T07:06:52.927Z,52.51
2023-06-01T07:11:55.730Z,52.00
2023-06-01T07:16:58.375Z,51.21
2023-06-01T07:22:01.626Z,50.89
2023-06-01T07:27:04.692Z,50.82
2023-06-01T07:32:07.547Z,50.70
2023-06-01T07:37:17.687Z,50.82
2023-06-01T07:42:21.697Z,49.47
2023-06-01T07:47:26.227Z,49.04
2023-06-01T07:52:28.931Z,48.05
2023-06-01T07:57:31.757Z,48.50
2023-06-01T08:02:34.548Z,47.14
2023-06-01T08:07:39.032Z,46.38
2023-06-01T08:12:43.779Z,46.60
2023-06-01T08:17:46.723Z,45.49
2023-06-01T08:22:50.576Z,44.92
2023-06-01T08:27:53.809Z,46.13
2023-06-01T08:32:56.500Z,45.30
2023-06-01T08:37:59.133Z,45.54
2023-06-01T08:43:20.630Z,43.79
2023-06-01T08:48:25.520Z,43.17
2023-06-01T08:53:29.865Z,42.97
2023-06-01T08:58:32.953Z,40.67
2023-06-01T09:03:35.705Z,42.46
2023-06-01T09:08:38.423Z,40.70
2023-06-01T09:13:42.622Z,39.47
2023-06-01T09:18:54.975Z,39.05
2023-06-01T09:24:18.191Z,39.44
2023-06-01T09:29:21.094Z,39.99
2023-06-01T09:34:23.696Z,40.34
2023-06-01T09:39:26.998Z,39.83
2023-06-01T09:44:34.214Z,40.22
2023-06-01T09:49:39.837Z,39.91
2023-06-01T09:54:47.394Z,40.09
2023-06-01T09:59:50.193Z,39.52
2023-06-01T10:04:59.010Z,39.31
2023-06-01T10:10:04.754Z,39.67
2023-06-01T10:15:20.521Z,40.13
2023-06-01T10:20:34.292Z,40.04
2023-06-01T10:25:44.376Z,38.21
2023-06-01T10:30:47.323Z,38.57
2023-06-01T10:35:50.413Z,39.06
2023-06-01T10:40:53.407Z,39.39
2023-06-01T10:45:56.200Z,39.38
2023-06-01T10:51:19.458Z,38.81
2023-06-01T10:56:24.958Z,38.57
2023-06-01T11:01:28.109Z,39.07
2023-06-01T11:06:34.818Z,39.79
2023-06-01T11:11:49.916Z,39.15
2023-06-01T11:16:53.931Z,38.42
2023-06-01T11:22:05.039Z,37.88
2023-06-01T11:27:10.305Z,36.21
2023-06-01T11:32:15.032Z,36.64
2023-06-01T11:37:19.548Z,37.02
2023-06-01T11:42:23.587Z,37.11
2023-06-01T11:47:31.046Z,36.28
2023-06-01T11:52:35.574Z,37.55
2023-06-01T11:57:42.988Z,36.52
2023-06-01T12:02:45.903Z,36.27
2023-06-01T12:07:54.344Z,35.35
2023-06-01T12:12:57.117Z,34.06
2023-06-01T12:18:00.624Z,33.43
2023-06-01T12:23:21.662Z,33.58
2023-06-01T12:28:27.637Z,34.48
2023-06-01T12:33:36.893Z,34.74
2023-06-01T12:38:53.181Z,34.62
2023-06-01T12:43:57.046Z,35.06
2023-06-01T12:49:18.972Z,35.92
2023-06-01T12:54:21.691Z,35.05
2023-06-01T12:59:24.443Z,35.13
2023-06-01T13:04:27.450Z,34.05
2023-06-01T13:09:30.131Z,33.39
2023-06-01T13:14:32.715Z,33.83
2023-06-01T13:19:35.611Z,34.05
2023-06-01T13:29:43.727Z,33.71
2023-06-01T13:34:46.385Z,34.40
2023-06-01T13:39:49.120Z,34.74
2023-06-01T13:44:52.031Z,34.87
2023-06-01T13:49:54.799Z,35.28
2023-06-01T13:54:58.138Z,34.36
2023-06-01T14:00:00.909Z,32.85
2023-06-01T14:05:08.141Z,32.86
2023-06-01T14:10:14.755Z,32.30
2023-06-01T14:15:17.505Z,31.62
2023-06-01T14:20:20.507Z,30.68
2023-06-01T14:25:23.186Z,29.06
2023-06-01T14:30:27.620Z,29.37
2023-06-01T14:35:30.582Z,29.58
2023-06-01T14:40:33.184Z,30.07
2023-06-01T14:45:35.995Z,28.87
2023-06-01T14:50:38.641Z,28.45
2023-06-01T14:55:41.978Z,28.46
2023-06-01T15:00:44.606Z,27.57
2023-06-01T15:05:47.243Z,28.23
2023-06-01T15:10:49.893Z,29.33
2023-06-01T15:15:52.409Z,31.29
2023-06-01T15:20:55.007Z,31.89
2023-06-01T15:25:57.669Z,31.99
2023-06-01T15:31:00.569Z,32.10
2023-06-01T15:36:03.586Z,32.48
2023-06-01T15:41:07.487Z,33.12
2023-06-01T15:46:10.172Z,34.15
2023-06-01T15:51:12.709Z,35.37
2023-06-01T15:56:16.477Z,36.59
2023-06-01T16:01:29.177Z,37.31
2023-06-01T16:06:32.688Z,36.86
2023-06-01T16:11:35.529Z,36.44
2023-06-01T16:16:38.391Z,36.47
2023-06-01T16:21:41.107Z,36.01
2023-06-01T16:26:43.990Z,36.48
2023-06-01T16:31:47.008Z,38.16
2023-06-01T16:36:49.592Z,40.03
2023-06-01T16:41:52.537Z,42.47
2023-06-01T16:46:55.368Z,44.50
2023-06-01T16:51:57.979Z,45.54
2023-06-01T16:57:02.117Z,44.33
2023-06-01T17:02:05.114Z,43.29
2023-06-01T17:07:07.973Z,42.03
2023-06-01T17:12:15.806Z,43.90
2023-06-01T17:17:20.708Z,47.30
2023-06-01T17:22:24.047Z,49.21
2023-06-01T17:27:27.035Z,51.13
2023-06-01T17:32:29.877Z,52.31
2023-06-01T17:37:32.924Z,54.48
2023-06-01T17:42:35.971Z,56.52
2023-06-01T17:47:38.958Z,57.41
2023-06-01T17:52:41.900Z,58.58
2023-06-01T17:57:44.727Z,60.14
2023-06-01T18:02:47.724Z,60.53
2023-06-01T18:07:50.608Z,60.43
2023-06-01T18:12:53.540Z,61.03
2023-06-01T18:17:56.555Z,58.80
2023-06-01T18:22:59.435Z,61.05
2023-06-01T18:28:02.860Z,61.63
2023-06-01T18:33:06.724Z,57.29
2023-06-01T18:38:10.697Z,59.09
2023-06-01T18:43:14.943Z,63.35
2023-06-01T18:48:24.901Z,62.04
2023-06-01T18:53:28.027Z,57.07
2023-06-01T18:58:30.964Z,62.31
2023-06-01T19:03:34.945Z,59.85
2023-06-01T19:08:38.221Z,60.21
2023-06-01T19:13:43.800Z,62.17
2023-06-01T19:18:51.716Z,58.14
2023-06-01T19:23:55.968Z,63.03
2023-06-01T19:29:11.604Z,59.58
2023-06-01T19:34:14.954Z,60.37
2023-06-01T19:39:39.290Z,63.18
2023-06-01T19:44:45.471Z,58.21
2023-06-01T19:49:51.477Z,62.27
2023-06-01T19:54:57.080Z,61.57
2023-06-01T20:00:00.008Z,58.43
2023-06-01T20:05:06.993Z,63.35
2023-06-01T20:10:20.191Z,58.71
2023-06-01T20:15:29.689Z,62.14
2023-06-01T20:20:37.796Z,61.99
2023-06-01T20:25:42.702Z,58.27
2023-06-01T20:31:06.347Z,63.55
2023-06-01T20:36:09.853Z,58.90
2023-06-01T20:41:14.533Z,61.56
2023-06-01T20:46:17.464Z,62.02
2023-06-01T20:51:34.776Z,57.65
2023-06-01T20:56:42.664Z,62.37
2023-06-01T21:01:48.411Z,61.45
2023-06-01T21:06:51.824Z,59.44
2023-06-01T21:11:56.940Z,62.25
2023-06-01T21:17:05.170Z,60.54
2023-06-01T21:22:07.906Z,64.91
2023-06-01T21:27:10.541Z,61.01
2023-06-01T21:32:13.312Z,58.35
2023-06-01T21:37:15.874Z,63.44
2023-06-01T21:42:19.254Z,59.89
2023-06-01T21:47:22.085Z,63.76
2023-06-01T21:52:24.667Z,61.58
2023-06-01T21:57:27.456Z,58.48
2023-06-01T22:02:30.081Z,62.88
2023-06-01T22:07:32.814Z,60.46
2023-06-01T22:12:36.776Z,59.54
2023-06-01T22:17:39.570Z,64.43
2023-06-01T22:22:42.838Z,59.45
2023-06-01T22:27:45.535Z,61.74
2023-06-01T22:32:48.165Z,62.13
2023-06-01T22:37:50.906Z,59.28
2023-06-01T22:42:54.124Z,63.86
2023-06-01T22:47:56.817Z,61.09
2023-06-01T22:53:00.561Z,58.57
2023-06-01T22:58:03.145Z,63.63
2023-06-01T23:03:06.184Z,60.56
2023-06-01T23:08:20.421Z,60.24
2023-06-01T23:13:24.242Z,63.79
2023-06-01T23:18:29.816Z,59.01
2023-06-01T23:23:34.110Z,61.93
2023-06-01T23:29:05.012Z,60.09
2023-06-01T23:34:07.762Z,60.99
2023-06-01T23:39:13.135Z,62.70
2023-06-01T23:44:16.593Z,58.49
2023-06-01T23:49:19.361Z,62.09
2023-06-01T23:54:22.052Z,61.82
2023-06-01T23:59:24.650Z,58.09
